createdAt,value
2022-07-29T00:03:44.424Z,101024.75
2022-07-29T00:08:46.451Z,101021.05
2022-07-29T00:13:51.150Z,101025.20
2022-07-29T00:18:53.484Z,101024.67
2022-07-29T00:23:55.664Z,101024.23
2022-07-29T00:29:32.032Z,101025.25
2022-07-29T00:34:40.790Z,101019.59
2022-07-29T00:39:42.978Z,101023.02
2022-07-29T00:44:45.363Z,101026.46
2022-07-29T00:49:47.958Z,101021.48
2022-07-29T00:54:49.935Z,101019.88
2022-07-29T00:59:51.812Z,101017.94
2022-07-29T01:04:54.407Z,101022.39
2022-07-29T01:09:57.615Z,101022.95
2022-07-29T01:15:01.484Z,101027.55
2022-07-29T01:20:16.214Z,101027.58
2022-07-29T01:25:51.626Z,101034.70
2022-07-29T01:31:01.150Z,101040.54
2022-07-29T01:36:13.969Z,101035.29
2022-07-29T01:41:20.452Z,101036.93
2022-07-29T01:46:32.717Z,101034.89
2022-07-29T01:51:44.277Z,101034.64
2022-07-29T01:56:49.676Z,101028.29
2022-07-29T02:01:54.772Z,101027.44
2022-07-29T02:07:04.552Z,101032.19
2022-07-29T02:12:08.064Z,101032.90
2022-07-29T02:17:12.752Z,101034.23
2022-07-29T02:22:17.266Z,101036.13
2022-07-29T02:27:21.376Z,101030.53
2022-07-29T02:32:26.681Z,101033.48
2022-07-29T02:37:31.786Z,101039.61
2022-07-29T02:42:35.377Z,101042.16
2022-07-29T02:47:42.383Z,101041.33
2022-07-29T02:52:58.411Z,101040.31
2022-07-29T02:58:29.880Z,101043.98
2022-07-29T03:03:37.903Z,101043.06
2022-07-29T03:08:41.110Z,101045.73
2022-07-29T03:13:43.094Z,101048.65
2022-07-29T03:18:45.171Z,101048.20
2022-07-29T03:23:47.150Z,101046.67
2022-07-29T03:28:49.232Z,101048.77
2022-07-29T03:33:51.620Z,101041.58
2022-07-29T03:38:54.114Z,101042.13
2022-07-29T03:43:57.422Z,101044.23
2022-07-29T03:49:01.873Z,101038.11
2022-07-29T03:54:09.508Z,101044.01
2022-07-29T03:59:13.397Z,101043.25
2022-07-29T04:09:36.196Z,101038.43
2022-07-29T04:14:38.175Z,101041.29
2022-07-29T04:19:40.051Z,101043.22
2022-07-29T04:24:44.435Z,101047.31
2022-07-29T04:29:56.736Z,101048.05
2022-07-29T04:34:59.199Z,101058.27
2022-07-29T04:40:01.283Z,101060.92
2022-07-29T04:45:04.295Z,101065.31
2022-07-29T04:50:10.610Z,101067.64
2022-07-29T04:55:12.646Z,101063.89
2022-07-29T05:00:14.832Z,101064.77
2022-07-29T05:05:16.709Z,101065.79
2022-07-29T05:10:18.587Z,101066.48
2022-07-29T05:15:20.665Z,101071.02
2022-07-29T05:20:26.885Z,101072.12
2022-07-29T05:25:44.315Z,101067.70
2022-07-29T05:30:46.941Z,101072.55
2022-07-29T05:35:48.961Z,101070.92
2022-07-29T05:40:51.249Z,101071.59
2022-07-29T05:45:53.305Z,101069.29
2022-07-29T05:50:55.589Z,101070.64
2022-07-29T05:55:57.697Z,101074.54
2022-07-29T06:01:00.070Z,101070.17
2022-07-29T06:06:02.067Z,101067.92
2022-07-29T06:11:05.479Z,101063.89
2022-07-29T06:16:07.612Z,101068.66
2022-07-29T06:21:10.671Z,101074.00
2022-07-29T06:26:12.649Z,101074.02
2022-07-29T06:31:14.969Z,101070.35
2022-07-29T06:36:17.019Z,101070.02
2022-07-29T06:41:20.223Z,101069.27
2022-07-29T06:46:23.603Z,101072.49
2022-07-29T06:51:26.249Z,101069.09
2022-07-29T06:56:30.993Z,101067.27
2022-07-29T07:01:33.455Z,101069.05
2022-07-29T07:06:36.468Z,101065.45
2022-07-29T07:11:38.447Z,101065.83
2022-07-29T07:16:40.508Z,101063.02
2022-07-29T07:21:42.509Z,101061.48
2022-07-29T07:26:45.000Z,101061.41
2022-07-29T07:31:47.175Z,101059.34
2022-07-29T07:36:49.066Z,101066.76
2022-07-29T07:41:53.042Z,101068.23
2022-07-29T07:46:55.377Z,101073.23
2022-07-29T07:51:57.257Z,101067.53
2022-07-29T07:56:59.080Z,101061.80
2022-07-29T08:02:01.818Z,101063.37
2022-07-29T08:07:05.335Z,101066.83
2022-07-29T08:12:08.139Z,101072.22
2022-07-29T08:17:10.121Z,101068.11
2022-07-29T08:22:12.000Z,101063.48
2022-07-29T08:27:40.691Z,101059.23
2022-07-29T08:32:53.283Z,101062.61
2022-07-29T08:37:57.358Z,101066.36
2022-07-29T08:43:06.462Z,101061.04
2022-07-29T08:48:08.586Z,101057.10
2022-07-29T08:53:16.169Z,101062.11
2022-07-29T08:58:21.615Z,101059.54
2022-07-29T09:03:32.143Z,101057.02
2022-07-29T09:08:34.630Z,101055.95
2022-07-29T09:13:37.068Z,101051.00
2022-07-29T09:18:45.297Z,101056.09
2022-07-29T09:24:07.441Z,101046.48
2022-07-29T09:29:18.087Z,101044.26
2022-07-29T09:34:38.133Z,101040.25
2022-07-29T09:39:47.406Z,101043.52
2022-07-29T09:44:51.372Z,101037.48
2022-07-29T09:50:01.103Z,101034.59
2022-07-29T09:55:18.278Z,101031.71
2022-07-29T10:00:23.552Z,101025.05
2022-07-29T10:05:36.827Z,101019.91
2022-07-29T10:10:42.531Z,101009.99
2022-07-29T10:15:46.929Z,101009.50
2022-07-29T10:20:49.404Z,101006.46
2022-07-29T10:25:51.436Z,101010.84
2022-07-29T10:30:59.479Z,101006.83
2022-07-29T10:36:09.369Z,101006.66
2022-07-29T10:47:02.896Z,101002.39
2022-07-29T10:52:08.573Z,100999.63
2022-07-29T10:57:16.836Z,100997.77
2022-07-29T11:02:41.480Z,100991.72
2022-07-29T11:08:21.075Z,100987.58
2022-07-29T11:13:43.873Z,100989.90
2022-07-29T11:19:11.048Z,100979.63
2022-07-29T11:24:14.771Z,100982.95
2022-07-29T11:29:23.037Z,100973.66
2022-07-29T11:34:29.986Z,100966.36
2022-07-29T11:44:58.791Z,100952.91
2022-07-29T11:50:13.367Z,100953.14
2022-07-29T11:55:23.370Z,100942.88
2022-07-29T12:00:38.503Z,100938.29
2022-07-29T12:05:48.150Z,100936.42
2022-07-29T12:10:53.884Z,100933.54
2022-07-29T12:16:00.004Z,100932.41
2022-07-29T12:21:04.293Z,100935.78
2022-07-29T12:26:10.552Z,100934.29
2022-07-29T12:31:41.847Z,100932.47
2022-07-29T12:36:39.212Z,100932.86
2022-07-29T12:41:41.194Z,100938.98
2022-07-29T12:46:43.438Z,100936.02
2022-07-29T12:51:46.075Z,100933.15
2022-07-29T12:56:59.766Z,100926.75
2022-07-29T13:02:02.091Z,100924.27
2022-07-29T13:07:07.779Z,100926.70
2022-07-29T13:12:11.809Z,100924.20
2022-07-29T13:17:24.125Z,100919.55
2022-07-29T13:22:26.416Z,100919.15
2022-07-29T13:27:32.674Z,100920.25
2022-07-29T13:32:36.882Z,100916.89
2022-07-29T13:37:39.151Z,100916.09
2022-07-29T13:42:42.116Z,100910.85
2022-07-29T13:47:49.240Z,100910.33
2022-07-29T13:52:52.223Z,100903.80
2022-07-29T13:57:54.316Z,100899.97
2022-07-29T14:02:56.590Z,100895.05
2022-07-29T14:07:58.577Z,100894.86
2022-07-29T14:13:00.651Z,100894.88
2022-07-29T14:18:03.139Z,100887.52
2022-07-29T14:23:05.324Z,100892.28
2022-07-29T14:28:08.021Z,100887.56
2022-07-29T14:33:10.296Z,100889.09
2022-07-29T14:38:13.019Z,100883.05
2022-07-29T14:43:15.398Z,100882.20
2022-07-29T14:48:17.371Z,100875.98
2022-07-29T14:53:19.562Z,100873.44
2022-07-29T14:58:23.175Z,100872.38
2022-07-29T15:03:25.107Z,100872.41
2022-07-29T15:08:28.975Z,100870.45
2022-07-29T15:13:30.955Z,100862.95
2022-07-29T15:18:32.832Z,100857.65
2022-07-29T15:23:39.316Z,100858.59
2022-07-29T15:28:41.503Z,100857.88
2022-07-29T15:33:43.380Z,100857.00
2022-07-29T15:38:45.563Z,100853.25
2022-07-29T15:43:48.362Z,100846.01
2022-07-29T15:48:50.400Z,100844.60
2022-07-29T15:53:53.349Z,100843.77
2022-07-29T15:58:55.882Z,100834.73
2022-07-29T16:03:58.596Z,100828.69
2022-07-29T16:09:00.715Z,100826.80
2022-07-29T16:14:03.005Z,100820.83
2022-07-29T16:19:05.699Z,100808.95
2022-07-29T16:24:08.025Z,100805.35
2022-07-29T16:29:10.067Z,100802.40
2022-07-29T16:34:12.150Z,100797.95
2022-07-29T16:39:14.437Z,100801.35
2022-07-29T16:44:16.417Z,100800.23
2022-07-29T16:49:19.953Z,100799.02
2022-07-29T16:54:22.325Z,100805.19
2022-07-29T16:59:24.303Z,100802.86
2022-07-29T17:04:27.098Z,100803.05
2022-07-29T17:09:29.077Z,100805.84
2022-07-29T17:14:31.312Z,100804.96
2022-07-29T17:19:35.761Z,100800.69
2022-07-29T17:24:38.387Z,100803.70
2022-07-29T17:29:41.297Z,100803.54
2022-07-29T17:34:43.378Z,100808.10
2022-07-29T17:39:45.974Z,100807.45
2022-07-29T17:44:47.747Z,100808.14
2022-07-29T17:49:49.669Z,100806.29
2022-07-29T17:54:51.715Z,100809.20
2022-07-29T17:59:53.684Z,100812.10
2022-07-29T18:04:56.725Z,100815.83
2022-07-29T18:10:00.736Z,100826.31
2022-07-29T18:15:07.305Z,100820.55
2022-07-29T18:20:11.434Z,100824.66
2022-07-29T18:25:13.417Z,100830.98
2022-07-29T18:30:16.117Z,100829.52
2022-07-29T18:35:18.499Z,100829.29
2022-07-29T18:40:25.303Z,100828.52
2022-07-29T18:45:29.623Z,100825.44
2022-07-29T18:50:36.119Z,100825.82
2022-07-29T18:55:39.288Z,100823.64
2022-07-29T19:00:41.809Z,100823.00
2022-07-29T19:05:45.120Z,100825.17
2022-07-29T19:10:47.417Z,100829.93
2022-07-29T19:15:51.418Z,100837.16
2022-07-29T19:20:54.036Z,100840.58
2022-07-29T19:25:56.929Z,100843.76
2022-07-29T19:30:59.289Z,100843.26
2022-07-29T19:36:03.347Z,100841.36
2022-07-29T19:41:06.317Z,100837.90
2022-07-29T19:46:08.789Z,100842.29
2022-07-29T19:51:11.341Z,100841.32
2022-07-29T19:56:15.176Z,100843.07
2022-07-29T20:01:18.010Z,100845.84
2022-07-29T20:06:20.998Z,100844.95
2022-07-29T20:11:23.349Z,100842.42
2022-07-29T20:16:25.685Z,100843.35
2022-07-29T20:21:29.179Z,100847.69
2022-07-29T20:26:33.079Z,100844.11
2022-07-29T20:31:39.760Z,100846.63
2022-07-29T20:36:42.777Z,100845.65
2022-07-29T20:41:52.844Z,100853.52
2022-07-29T20:46:55.547Z,100850.22
2022-07-29T20:51:59.356Z,100848.21
2022-07-29T20:57:01.765Z,100852.98
2022-07-29T21:02:04.748Z,100855.80
2022-07-29T21:07:06.930Z,100857.73
2022-07-29T21:12:10.760Z,100858.16
2022-07-29T21:17:13.861Z,100853.67
2022-07-29T21:22:15.740Z,100857.70
2022-07-29T21:27:38.241Z,100857.81
2022-07-29T21:32:40.649Z,100851.92
2022-07-29T21:37:42.984Z,100851.23
2022-07-29T21:42:45.546Z,100846.59
2022-07-29T21:47:47.754Z,100843.55
2022-07-29T21:52:49.833Z,100836.45
2022-07-29T21:57:53.042Z,100837.61
2022-07-29T22:02:55.269Z,100841.20
2022-07-29T22:07:58.442Z,100840.59
2022-07-29T22:13:02.666Z,100837.89
2022-07-29T22:18:04.747Z,100845.79
2022-07-29T22:23:06.727Z,100843.56
2022-07-29T22:28:08.711Z,100840.96
2022-07-29T22:33:10.994Z,100842.59
2022-07-29T22:38:20.283Z,100844.21
2022-07-29T22:43:22.940Z,100831.38
2022-07-29T22:48:25.130Z,100824.02
2022-07-29T22:53:27.001Z,100826.84
2022-07-29T22:58:28.985Z,100823.95
2022-07-29T23:03:30.991Z,100821.73
2022-07-29T23:08:32.947Z,100818.13
2022-07-29T23:13:34.919Z,100818.63
2022-07-29T23:18:39.357Z,100814.21
2022-07-29T23:23:41.334Z,100812.52
2022-07-29T23:28:45.054Z,100812.00
2022-07-29T23:33:46.932Z,100808.85
2022-07-29T23:38:49.014Z,100809.58
2022-07-29T23:43:51.300Z,100810.77
2022-07-29T23:48:53.423Z,100808.02
2022-07-29T23:53:55.773Z,100805.71
2022-07-29T23:58:57.751Z,100808.98
